Aérodrome :
LOGIN :

S'inscrire | Disclaimer

   EN    FR    IT 

 










Légende :    VFR   VFR Marginal   IFR   IFR Intensif   IFR Très Intensif
Visi : 
Plafond : 
>= 8 km
>= 3000ft
5 à 8 km
1000 à 3000 ft
1500m à 5 km
500 à 1000 ft
800 à 1500m
200 à 500 ft
< 800m
< 200 ft
Symboles :   Orages  Brouillard  Fortes neiges  Fortes précipitations  Vent > 20 kt
SIGMETs :   Divers  Orages  Givrage  Turbulence  Onde Orograph.  Cendres Volcan.







- Altitude de l'aérodrome : 141 ft
- Code IATA : SKS


EKSP - Srydstrup Vojens

DERNIER METAR :
  • 170120Z 22011KT 8000 NSC 16/14 Q1015 RMK FEW130

METARs EXPIRÉS :
  • 170050Z 22011KT 8000 NSC 17/15 Q1016 RMK FEW130
  • 170020Z 22008KT 8000 NSC 16/14 Q1016 RMK FEW130
  • 162350Z 21007KT 7000 NSC 16/14 Q1016 RMK SCT130
  • 162320Z 19008KT 7000 NSC 15/14 Q1016 RMK SCT130
  • 162250Z 19005KT 6000 NSC 15/14 Q1016

TAF TAF EKSP
Valide du 17 à 00h jusqu'au 18 à 00h UTC


162314Z 1700/1724 16008KT 9999 SCT020
TEMPO 1700/1702 3000 BR
BECMG 1702/1704 23012KT
TEMPO 1708/1721 23018G30KT
Pas de NOTAMs connus pour ce terrain.



MET'MAP, la Météo Aéronautique d'un coup d'oeil ! - Copyright ORBIFLY Décembre 2007 - Disclaimer

ORBIFLY MET'MAP TEAM :

Programmation & Développement : Alexandra Zaïnal
Conception & Développement : Baudouin d'Aumeries
Co-Programmation & Développement : Marc-Olivier Méhu
Soutien technique & logistique : Manuel Goepfert

Contact : metmap@orbifly.com




SOURCES & CREDITS :

   NOAA